Time;durP1;ratioP1;P1;durP2;ratioP2;P2;SDS_P1;SDS_P2;PMS_P1;PMS_P2;Temp;Humidity;BMP_temperature;BMP_pressure;BME280_temperature;BME280_humidity;BME280_pressure;Samples;Min_cycle;Max_cycle;Signal;HPM_P1;HPM_P2
2023/06/16 00:01:31;;;;;;;1.80;1.70;;;19.40;53.10;18.50;96454.00;;;;5058177;28;20201;-80
2023/06/16 00:04:03;;;;;;;2.20;1.80;;;19.40;53.10;18.50;96454.00;;;;5054972;28;20755;-79
2023/06/16 00:06:32;;;;;;;2.13;1.83;;;19.40;53.10;18.50;96452.00;;;;5046765;28;20197;-79
2023/06/16 00:09:01;;;;;;;2.00;1.80;;;19.40;53.30;18.50;96448.00;;;;5059290;28;20255;-79
2023/06/16 00:11:30;;;;;;;2.10;1.93;;;19.40;53.40;18.50;96452.00;;;;5053224;28;20280;-79
2023/06/16 00:13:58;;;;;;;1.90;1.80;;;19.40;53.60;18.50;96465.00;;;;5061244;28;20216;-79
2023/06/16 00:16:27;;;;;;;2.17;2.00;;;19.40;53.70;18.50;96462.00;;;;5051401;28;20226;-80
2023/06/16 00:18:58;;;;;;;1.67;1.57;;;19.30;53.70;18.50;96445.00;;;;5059438;28;20215;-80
2023/06/16 00:21:27;;;;;;;2.20;2.00;;;19.40;53.80;18.50;96452.00;;;;5051405;28;20266;-79
2023/06/16 00:23:57;;;;;;;2.13;1.97;;;19.30;53.70;18.40;96445.00;;;;5072552;28;20247;-80
2023/06/16 00:26:26;;;;;;;1.90;1.80;;;19.30;53.70;18.40;96451.00;;;;5054810;28;20228;-80
2023/06/16 00:28:53;;;;;;;2.33;1.77;;;19.30;53.60;18.40;96450.00;;;;5063320;28;20271;-79
2023/06/16 00:31:21;;;;;;;2.40;2.20;;;19.30;53.60;18.30;96450.00;;;;5066292;28;20694;-81
2023/06/16 00:33:48;;;;;;;2.10;2.00;;;19.20;53.70;18.30;96446.00;;;;5056731;28;20224;-80
2023/06/16 00:36:18;;;;;;;2.00;1.90;;;19.20;53.70;18.30;96442.00;;;;5059401;28;20200;-80
2023/06/16 00:38:46;;;;;;;1.90;1.80;;;19.20;53.80;18.20;96443.00;;;;5053132;28;20637;-80
2023/06/16 00:41:15;;;;;;;1.77;1.67;;;19.10;54.00;18.20;96434.00;;;;5054625;28;20208;-80
2023/06/16 00:43:44;;;;;;;2.27;1.80;;;19.10;54.40;18.20;96436.00;;;;5054713;28;20587;-80
2023/06/16 00:46:25;;;;;;;2.07;1.97;;;19.10;54.60;18.10;96435.00;;;;5029619;28;20212;-80
2023/06/16 00:48:52;;;;;;;2.03;1.90;;;19.00;54.50;18.10;96445.00;;;;5063916;28;20205;-81
2023/06/16 00:51:20;;;;;;;2.17;1.97;;;19.00;54.40;18.00;96446.00;;;;5057059;28;20902;-80
2023/06/16 00:53:49;;;;;;;2.20;2.10;;;19.00;54.50;18.00;96453.00;;;;5055741;28;20226;-80
2023/06/16 00:56:21;;;;;;;2.40;2.10;;;18.90;54.70;18.00;96443.00;;;;5060508;28;20196;-80
2023/06/16 00:58:52;;;;;;;2.07;1.97;;;18.90;54.90;18.00;96443.00;;;;5056246;28;20274;-80
2023/06/16 01:01:20;;;;;;;1.77;1.67;;;18.90;54.80;17.90;96442.00;;;;5055393;28;20193;-80
2023/06/16 01:03:50;;;;;;;2.30;2.10;;;18.90;54.80;17.90;96444.00;;;;5057191;28;20223;-80
2023/06/16 01:06:33;;;;;;;2.60;2.40;;;18.80;54.70;17.80;96437.00;;;;5049911;28;20667;-79
2023/06/16 01:09:12;;;;;;;1.97;1.80;;;18.80;55.00;17.70;96428.00;;;;5057075;28;20708;-78
2023/06/16 01:11:54;;;;;;;1.73;1.63;;;18.70;54.90;17.70;96425.00;;;;5051356;28;20200;-81
2023/06/16 01:14:33;;;;;;;2.00;1.90;;;18.70;55.10;17.70;96419.00;;;;5054089;28;20274;-81
2023/06/16 01:17:05;;;;;;;2.17;1.97;;;18.60;55.30;17.60;96419.00;;;;5049680;28;20196;-80
2023/06/16 01:19:45;;;;;;;1.87;1.77;;;18.60;55.30;17.60;96422.00;;;;5052717;28;20658;-81
2023/06/16 01:22:38;;;;;;;1.77;1.67;;;18.50;55.50;17.60;96429.00;;;;5054042;28;20200;-80
2023/06/16 01:25:14;;;;;;;1.87;1.77;;;18.50;55.60;17.50;96429.00;;;;5053965;28;20225;-80
2023/06/16 01:27:47;;;;;;;2.37;2.17;;;18.50;55.70;17.50;96418.00;;;;5051177;28;20247;-81
2023/06/16 01:30:19;;;;;;;2.50;1.77;;;18.50;55.60;17.50;96424.00;;;;5052089;28;20216;-79
2023/06/16 01:32:53;;;;;;;2.03;1.87;;;18.40;55.70;17.40;96424.00;;;;5056216;28;20196;-78
2023/06/16 01:35:23;;;;;;;2.10;2.00;;;18.40;55.80;17.40;96421.00;;;;5055030;28;20252;-80
2023/06/16 01:37:54;;;;;;;1.93;1.83;;;18.40;55.90;17.40;96417.00;;;;5069046;28;20228;-80
2023/06/16 01:40:25;;;;;;;3.07;2.10;;;18.30;55.80;17.40;96414.00;;;;5065709;28;20196;-80
2023/06/16 01:42:56;;;;;;;2.17;1.97;;;18.30;56.10;17.30;96416.00;;;;5058713;28;20256;-80
2023/06/16 01:45:25;;;;;;;2.37;2.17;;;18.30;56.10;17.30;96415.00;;;;5055314;28;20208;-80
2023/06/16 01:47:53;;;;;;;2.00;1.90;;;18.30;56.30;17.30;96417.00;;;;5055737;28;20188;-80
2023/06/16 01:50:21;;;;;;;2.03;1.77;;;18.20;56.30;17.30;96413.00;;;;5059852;28;21222;-80
2023/06/16 01:52:48;;;;;;;2.00;1.90;;;18.20;56.50;17.30;96407.00;;;;5059801;28;20316;-79
2023/06/16 01:55:15;;;;;;;2.13;2.03;;;18.20;56.60;17.20;96415.00;;;;5063166;28;20216;-79
2023/06/16 01:57:44;;;;;;;2.63;2.23;;;18.20;56.80;17.20;96410.00;;;;5057584;28;20195;-80
2023/06/16 02:00:20;;;;;;;2.50;2.00;;;18.10;57.10;17.20;96412.00;;;;5068664;28;20288;-79
2023/06/16 02:02:55;;;;;;;2.23;2.10;;;18.10;57.30;17.20;96405.00;;;;5063250;28;20200;-79
2023/06/16 02:05:27;;;;;;;2.17;1.97;;;18.10;57.50;17.10;96415.00;;;;5066632;28;20257;-79
2023/06/16 02:07:57;;;;;;;2.47;1.90;;;18.10;57.50;17.10;96407.00;;;;5060460;28;20211;-80
2023/06/16 02:10:26;;;;;;;2.20;2.10;;;18.10;57.50;17.10;96413.00;;;;5053316;28;20409;-80
2023/06/16 02:12:54;;;;;;;2.13;1.93;;;18.10;57.60;17.10;96410.00;;;;5054200;28;20275;-80
2023/06/16 02:15:24;;;;;;;2.00;1.90;;;18.10;57.70;17.10;96410.00;;;;5055692;28;20240;-81
2023/06/16 02:17:52;;;;;;;2.30;2.10;;;18.10;57.60;17.20;96405.00;;;;5050563;28;20208;-80
2023/06/16 02:20:20;;;;;;;2.20;2.00;;;18.10;57.60;17.20;96400.00;;;;5051961;28;20208;-80
2023/06/16 02:22:47;;;;;;;2.47;2.33;;;18.10;57.70;17.20;96402.00;;;;5067574;28;20709;-79
2023/06/16 02:25:15;;;;;;;2.20;2.10;;;18.10;57.80;17.20;96409.00;;;;5034022;28;20611;-79
2023/06/16 02:27:43;;;;;;;1.93;1.83;;;18.10;57.80;17.20;96397.00;;;;5066586;28;20204;-80
2023/06/16 02:30:14;;;;;;;2.57;2.00;;;18.10;57.80;17.20;96398.00;;;;5051277;28;20228;-80
2023/06/16 02:32:41;;;;;;;3.07;2.50;;;18.10;57.90;17.30;96401.00;;;;5052506;28;20280;-80
2023/06/16 02:35:09;;;;;;;1.83;1.73;;;18.10;57.90;17.30;96405.00;;;;5050659;28;20299;-80
2023/06/16 02:37:37;;;;;;;2.30;2.10;;;18.20;58.00;17.30;96410.00;;;;5049623;28;20196;-81
2023/06/16 02:40:06;;;;;;;2.93;2.10;;;18.20;58.10;17.30;96409.00;;;;5054559;28;20284;-80
2023/06/16 02:42:34;;;;;;;2.27;2.07;;;18.20;58.10;17.40;96414.00;;;;5070867;28;20196;-80
2023/06/16 02:45:01;;;;;;;2.20;2.00;;;18.20;58.10;17.40;96412.00;;;;5064401;28;20223;-80
2023/06/16 02:47:30;;;;;;;2.57;2.37;;;18.20;58.00;17.40;96417.00;;;;5048185;28;20661;-80
2023/06/16 02:49:59;;;;;;;2.50;2.07;;;18.20;58.10;17.30;96417.00;;;;5053313;28;20299;-80
2023/06/16 02:52:26;;;;;;;2.33;2.17;;;18.20;58.00;17.30;96416.00;;;;5048373;28;20686;-80
2023/06/16 02:54:54;;;;;;;2.03;1.83;;;18.20;57.90;17.30;96424.00;;;;5055787;28;20244;-80
2023/06/16 02:57:21;;;;;;;2.30;1.97;;;18.20;57.90;17.30;96428.00;;;;5054505;28;20200;-81
2023/06/16 02:59:49;;;;;;;1.93;1.83;;;18.20;58.00;17.30;96426.00;;;;5053806;28;20208;-80
2023/06/16 03:02:16;;;;;;;2.70;2.27;;;18.20;57.90;17.30;96427.00;;;;5052580;28;20689;-80
2023/06/16 03:04:45;;;;;;;3.13;2.30;;;18.20;57.90;17.20;96429.00;;;;5055999;28;20227;-79
2023/06/16 03:07:14;;;;;;;2.50;2.30;;;18.20;58.00;17.20;96432.00;;;;5058329;28;20204;-81
2023/06/16 03:09:42;;;;;;;2.50;2.30;;;18.10;57.90;17.10;96430.00;;;;5041230;28;20775;-78
2023/06/16 03:12:11;;;;;;;2.33;2.13;;;18.10;57.90;17.10;96436.00;;;;5065849;28;20192;-80
2023/06/16 03:14:38;;;;;;;2.27;2.13;;;18.10;57.90;17.10;96434.00;;;;5050174;28;20231;-80
2023/06/16 03:17:06;;;;;;;2.40;2.20;;;18.00;57.80;17.00;96427.00;;;;5067302;28;20739;-80
2023/06/16 03:19:34;;;;;;;2.50;2.30;;;18.00;57.80;17.00;96436.00;;;;5044892;28;20201;-78
2023/06/16 03:22:03;;;;;;;2.87;2.50;;;17.90;57.80;17.00;96429.00;;;;5052112;28;20220;-80
2023/06/16 03:24:33;;;;;;;3.20;2.90;;;17.90;57.80;17.00;96434.00;;;;5055821;28;20254;-80
2023/06/16 03:27:02;;;;;;;2.23;2.03;;;17.90;57.80;16.90;96442.00;;;;5051888;28;20295;-77
2023/06/16 03:29:31;;;;;;;3.10;2.10;;;17.90;58.10;16.90;96445.00;;;;5046093;28;20220;-80
2023/06/16 03:31:58;;;;;;;4.83;2.40;;;17.80;58.30;16.90;96440.00;;;;5068999;28;20276;-80
2023/06/16 03:34:26;;;;;;;2.60;2.40;;;17.80;58.30;16.90;96438.00;;;;5034950;28;20223;-80
2023/06/16 03:36:53;;;;;;;3.00;2.70;;;17.80;58.30;16.80;96444.00;;;;5053203;28;20284;-81
2023/06/16 03:39:22;;;;;;;2.27;2.10;;;17.80;58.20;16.80;96449.00;;;;5051783;28;20207;-82
2023/06/16 03:41:50;;;;;;;3.07;2.80;;;17.70;58.30;16.80;96452.00;;;;5057598;28;20216;-82
2023/06/16 03:44:17;;;;;;;3.03;2.03;;;17.70;58.30;16.80;96454.00;;;;5053673;28;20217;-83
2023/06/16 03:46:45;;;;;;;2.10;2.00;;;17.70;58.40;16.70;96457.00;;;;5055797;28;20199;-82
2023/06/16 03:49:12;;;;;;;4.20;2.20;;;17.70;58.30;16.70;96447.00;;;;5055708;28;20284;-82
2023/06/16 03:51:39;;;;;;;3.17;2.50;;;17.70;58.40;16.70;96455.00;;;;5074317;28;20214;-83
2023/06/16 03:54:07;;;;;;;2.37;2.17;;;17.70;58.40;16.70;96460.00;;;;5044539;28;20213;-81
2023/06/16 03:56:36;;;;;;;3.30;2.43;;;17.70;58.40;16.70;96453.00;;;;5053808;28;20196;-83
2023/06/16 03:59:03;;;;;;;2.73;2.50;;;17.60;58.40;16.60;96459.00;;;;5040433;28;20650;-82
2023/06/16 04:01:31;;;;;;;2.63;2.43;;;17.60;58.40;16.60;96459.00;;;;5053783;28;20200;-83
2023/06/16 04:03:59;;;;;;;2.80;2.60;;;17.60;58.50;16.60;96463.00;;;;5053563;28;20220;-82
2023/06/16 04:06:27;;;;;;;2.30;2.10;;;17.60;58.70;16.60;96469.00;;;;5049614;28;20196;-80
2023/06/16 04:08:56;;;;;;;2.63;2.43;;;17.50;58.60;16.60;96466.00;;;;5055207;28;20232;-82
2023/06/16 04:11:26;;;;;;;3.00;2.57;;;17.50;58.80;16.60;96470.00;;;;5054627;28;20220;-81
2023/06/16 04:13:55;;;;;;;2.60;2.40;;;17.50;58.90;16.50;96464.00;;;;5033091;28;20221;-81
2023/06/16 04:16:22;;;;;;;2.77;2.57;;;17.50;59.00;16.50;96465.00;;;;5054405;28;20204;-81
2023/06/16 04:18:49;;;;;;;2.97;2.67;;;17.50;59.00;16.50;96466.00;;;;5053089;28;20221;-81
2023/06/16 04:21:17;;;;;;;2.60;2.40;;;17.50;59.10;16.50;96461.00;;;;5054905;28;20291;-81
2023/06/16 04:23:44;;;;;;;2.97;2.77;;;17.50;59.20;16.50;96466.00;;;;5048867;28;20220;-81
2023/06/16 04:26:11;;;;;;;2.47;2.33;;;17.50;59.30;16.60;96469.00;;;;5058226;28;20336;-81
2023/06/16 04:28:42;;;;;;;3.17;2.70;;;17.50;59.40;16.60;96474.00;;;;5054209;28;20199;-81
2023/06/16 04:31:12;;;;;;;2.90;2.70;;;17.50;59.50;16.60;96464.00;;;;5061040;28;20220;-81
2023/06/16 04:33:41;;;;;;;4.07;2.77;;;17.50;59.60;16.60;96469.00;;;;5061407;28;20220;-81
2023/06/16 04:36:09;;;;;;;2.80;2.60;;;17.50;59.50;16.70;96473.00;;;;5064989;28;20207;-82
2023/06/16 04:38:37;;;;;;;2.60;2.40;;;17.60;59.70;16.70;96465.00;;;;5056969;28;20280;-82
2023/06/16 04:41:05;;;;;;;3.60;2.53;;;17.60;59.80;16.80;96468.00;;;;5052376;28;20705;-82
2023/06/16 04:43:33;;;;;;;2.97;2.77;;;17.60;59.80;16.80;96472.00;;;;5053948;28;20299;-82
2023/06/16 04:46:00;;;;;;;2.77;2.57;;;17.70;59.80;16.80;96472.00;;;;5054279;28;20239;-81
2023/06/16 04:48:29;;;;;;;2.70;2.50;;;17.70;59.80;16.90;96477.00;;;;5048082;28;20224;-82
2023/06/16 04:50:57;;;;;;;2.70;2.50;;;17.70;59.90;16.90;96474.00;;;;5063726;28;20637;-83
2023/06/16 04:53:24;;;;;;;2.73;2.60;;;17.70;59.80;16.90;96474.00;;;;5054054;28;20242;-81
2023/06/16 04:55:51;;;;;;;3.10;2.80;;;17.80;59.80;17.00;96475.00;;;;5051048;28;20200;-81
2023/06/16 04:58:19;;;;;;;4.23;2.90;;;17.80;59.90;17.00;96474.00;;;;5055749;28;20637;-82
2023/06/16 05:00:46;;;;;;;2.97;2.77;;;17.80;59.80;17.10;96479.00;;;;5051015;28;20276;-81
2023/06/16 05:03:16;;;;;;;3.80;2.60;;;17.80;59.70;17.10;96474.00;;;;5051551;28;20233;-82
2023/06/16 05:05:45;;;;;;;3.40;2.60;;;17.90;59.80;17.10;96470.00;;;;5055537;28;20697;-82
2023/06/16 05:08:13;;;;;;;2.83;2.63;;;17.90;59.80;17.20;96478.00;;;;5055357;28;20201;-80
2023/06/16 05:10:40;;;;;;;2.73;2.53;;;18.00;59.80;17.20;96471.00;;;;5058106;28;20601;-81
2023/06/16 05:13:08;;;;;;;3.47;3.20;;;18.00;59.90;17.30;96473.00;;;;5053206;28;20195;-82
2023/06/16 05:15:35;;;;;;;3.70;3.40;;;18.10;59.90;17.30;96473.00;;;;5055520;28;20197;-83
2023/06/16 05:18:02;;;;;;;3.23;3.03;;;18.10;59.70;17.40;96479.00;;;;5055085;28;21969;-83
2023/06/16 05:20:31;;;;;;;4.33;3.20;;;18.10;59.70;17.50;96483.00;;;;5056840;28;20235;-82
2023/06/16 05:23:03;;;;;;;3.20;3.00;;;18.20;59.80;17.50;96483.00;;;;5052654;28;20200;-83
2023/06/16 05:25:31;;;;;;;3.20;2.90;;;18.30;59.70;17.60;96475.00;;;;5054598;28;20250;-90
2023/06/16 05:27:58;;;;;;;3.33;3.13;;;18.30;59.60;17.60;96476.00;;;;5053002;28;20287;-90
2023/06/16 05:30:25;;;;;;;3.50;3.30;;;18.40;59.70;17.70;96479.00;;;;5029292;28;20223;-85
2023/06/16 05:32:52;;;;;;;3.70;3.40;;;18.40;59.80;17.70;96479.00;;;;5059256;28;20283;-84
2023/06/16 05:35:20;;;;;;;3.50;3.20;;;18.50;59.70;17.80;96467.00;;;;5046453;28;20300;-84
2023/06/16 05:37:47;;;;;;;3.50;3.20;;;18.50;59.70;17.80;96470.00;;;;5063074;28;20201;-83
2023/06/16 05:40:17;;;;;;;4.73;3.23;;;18.60;59.80;17.90;96472.00;;;;5051110;28;20219;-83
2023/06/16 05:42:44;;;;;;;3.87;3.57;;;18.60;59.90;18.00;96471.00;;;;5058277;28;20837;-83
2023/06/16 05:45:12;;;;;;;3.37;3.07;;;18.70;59.80;18.00;96469.00;;;;5058127;28;20251;-86
2023/06/16 05:47:40;;;;;;;3.20;3.00;;;18.70;59.70;18.10;96479.00;;;;5048560;28;20197;-84
2023/06/16 05:50:08;;;;;;;3.30;3.00;;;18.80;59.70;18.20;96476.00;;;;5048080;28;20229;-83
2023/06/16 05:52:36;;;;;;;3.50;3.20;;;18.80;59.60;18.20;96476.00;;;;5059248;28;20632;-84
2023/06/16 05:55:03;;;;;;;3.40;3.10;;;18.90;59.40;18.30;96483.00;;;;5055685;28;20296;-84
2023/06/16 05:57:32;;;;;;;3.17;2.97;;;19.00;59.50;18.40;96484.00;;;;5034744;28;20662;-83
2023/06/16 06:00:00;;;;;;;3.30;3.00;;;19.00;59.50;18.40;96478.00;;;;5064298;28;20201;-84
2023/06/16 06:02:27;;;;;;;3.43;3.20;;;19.10;59.40;18.50;96479.00;;;;5057485;28;21006;-83
2023/06/16 06:04:55;;;;;;;3.53;3.20;;;19.20;59.20;18.60;96484.00;;;;5058339;28;20343;-82
2023/06/16 06:07:22;;;;;;;3.27;3.07;;;19.20;59.10;18.70;96487.00;;;;5057971;28;20227;-82
2023/06/16 06:09:49;;;;;;;3.00;2.80;;;19.30;59.30;18.70;96488.00;;;;5057255;28;20220;-84
2023/06/16 06:12:17;;;;;;;3.17;2.97;;;19.40;59.20;18.80;96496.00;;;;5029076;28;20710;-84
2023/06/16 06:14:46;;;;;;;2.90;2.70;;;19.40;59.10;18.90;96492.00;;;;5055769;28;20282;-83
2023/06/16 06:17:14;;;;;;;3.40;3.10;;;19.50;59.00;19.00;96489.00;;;;5059890;28;20200;-84
2023/06/16 06:19:41;;;;;;;3.13;2.93;;;19.60;58.90;19.10;96498.00;;;;5055140;28;20197;-84
2023/06/16 06:22:08;;;;;;;3.20;2.90;;;19.70;58.70;19.20;96497.00;;;;5054448;28;20201;-83
2023/06/16 06:24:35;;;;;;;3.47;3.10;;;19.70;58.70;19.30;96500.00;;;;5056190;28;20303;-83
2023/06/16 06:27:03;;;;;;;2.73;2.57;;;19.90;58.80;19.40;96495.00;;;;5052889;28;20211;-82
2023/06/16 06:29:30;;;;;;;3.47;2.83;;;19.90;58.60;19.50;96502.00;;;;5055188;28;20208;-84
2023/06/16 06:31:59;;;;;;;3.20;3.00;;;20.00;58.30;19.60;96509.00;;;;5057684;28;20212;-84
2023/06/16 06:34:26;;;;;;;2.73;2.53;;;20.10;58.40;19.70;96507.00;;;;5047475;28;20263;-83
2023/06/16 06:36:54;;;;;;;2.87;2.60;;;20.20;58.30;19.90;96505.00;;;;5059521;28;20197;-82
2023/06/16 06:39:21;;;;;;;3.63;2.53;;;20.30;58.30;19.90;96503.00;;;;5056685;28;20197;-82
2023/06/16 06:41:49;;;;;;;3.13;2.80;;;20.40;58.00;20.00;96510.00;;;;5059786;28;20268;-82
2023/06/16 06:44:16;;;;;;;3.40;2.70;;;20.50;57.60;20.10;96512.00;;;;5061916;28;20729;-82
2023/06/16 06:46:43;;;;;;;2.67;2.47;;;20.60;57.70;20.20;96512.00;;;;5062318;28;20203;-83
2023/06/16 06:49:12;;;;;;;2.93;2.50;;;20.70;57.60;20.30;96515.00;;;;5052961;28;20201;-81
2023/06/16 06:51:40;;;;;;;5.00;2.53;;;20.80;57.20;20.50;96514.00;;;;5058969;28;20246;-80
2023/06/16 06:54:08;;;;;;;2.53;2.33;;;20.90;57.20;20.60;96513.00;;;;5056680;28;20216;-80
2023/06/16 06:56:36;;;;;;;3.43;2.20;;;21.00;57.00;20.70;96519.00;;;;5036738;28;20203;-81
2023/06/16 06:59:04;;;;;;;2.47;2.27;;;21.20;57.10;20.90;96518.00;;;;5060619;28;20238;-80
2023/06/16 07:01:31;;;;;;;2.87;2.47;;;21.30;57.20;21.00;96520.00;;;;5039896;28;20197;-82
2023/06/16 07:04:01;;;;;;;2.73;2.40;;;21.40;57.00;21.20;96519.00;;;;5053454;28;20230;-83
2023/06/16 07:06:32;;;;;;;2.13;2.03;;;21.50;57.10;21.40;96527.00;;;;5046612;28;20279;-82
2023/06/16 07:09:00;;;;;;;2.37;2.17;;;21.70;57.20;21.50;96520.00;;;;5054315;28;20196;-81
2023/06/16 07:11:27;;;;;;;2.40;2.20;;;21.80;56.90;21.70;96528.00;;;;5046263;28;20283;-82
2023/06/16 07:13:55;;;;;;;2.43;2.30;;;22.00;56.90;21.80;96526.00;;;;5054582;28;20597;-82
2023/06/16 07:16:23;;;;;;;2.50;2.30;;;22.20;56.60;22.00;96515.00;;;;5049592;28;20200;-82
2023/06/16 07:18:50;;;;;;;2.33;2.20;;;22.30;56.50;22.10;96526.00;;;;5052601;28;20209;-82
2023/06/16 07:21:18;;;;;;;2.37;2.27;;;22.40;56.60;22.30;96527.00;;;;5041088;28;20785;-82
2023/06/16 07:23:47;;;;;;;2.07;1.97;;;22.60;56.50;22.50;96532.00;;;;5060299;28;20243;-82
2023/06/16 07:26:14;;;;;;;3.00;2.23;;;22.80;55.80;22.60;96533.00;;;;5050752;28;20193;-81
2023/06/16 07:28:42;;;;;;;2.13;2.03;;;22.90;55.60;22.80;96531.00;;;;5058924;28;20193;-81
2023/06/16 07:31:10;;;;;;;2.40;2.30;;;23.10;55.10;22.90;96527.00;;;;5046043;28;20221;-83
2023/06/16 07:33:38;;;;;;;2.10;2.00;;;23.20;54.50;23.00;96527.00;;;;5030776;28;20270;-81
2023/06/16 07:36:06;;;;;;;2.00;1.90;;;23.40;54.40;23.20;96532.00;;;;5057129;28;20288;-83
2023/06/16 07:38:33;;;;;;;3.83;3.00;;;23.50;54.40;23.30;96539.00;;;;5060321;28;20200;-83
2023/06/16 07:41:04;;;;;;;2.43;2.23;;;23.60;54.50;23.50;96533.00;;;;5056456;28;20219;-83
2023/06/16 07:43:31;;;;;;;2.23;2.13;;;23.80;53.70;23.60;96532.00;;;;5055687;28;20219;-83
2023/06/16 07:45:59;;;;;;;2.50;2.30;;;23.90;53.40;23.80;96527.00;;;;5059941;28;20265;-82
2023/06/16 07:48:30;;;;;;;1.97;1.87;;;24.10;53.40;23.90;96531.00;;;;5062403;28;20253;-83
2023/06/16 07:50:57;;;;;;;2.60;2.20;;;24.20;53.00;24.10;96538.00;;;;5062845;28;20256;-83
2023/06/16 07:53:25;;;;;;;2.00;1.90;;;24.40;53.00;24.30;96536.00;;;;5061936;28;20225;-82
2023/06/16 07:55:52;;;;;;;2.20;1.90;;;24.50;52.60;24.40;96530.00;;;;5061762;28;20342;-82
2023/06/16 07:58:22;;;;;;;2.03;1.83;;;24.70;52.80;24.60;96521.00;;;;5059602;28;20231;-83
2023/06/16 08:00:51;;;;;;;2.20;2.00;;;24.90;52.10;24.70;96528.00;;;;5060860;28;20683;-81
2023/06/16 08:03:19;;;;;;;3.80;2.27;;;25.00;51.50;24.90;96521.00;;;;5059268;28;20204;-83
2023/06/16 08:05:47;;;;;;;2.80;2.00;;;25.10;50.90;25.00;96520.00;;;;5057147;28;20207;-83
2023/06/16 08:08:14;;;;;;;2.57;2.07;;;25.30;51.00;25.20;96518.00;;;;5037132;28;20228;-83
2023/06/16 08:10:41;;;;;;;2.00;1.90;;;25.40;50.60;25.30;96524.00;;;;5056051;28;20315;-81
2023/06/16 08:13:08;;;;;;;2.63;2.10;;;25.60;49.60;25.50;96520.00;;;;5061842;28;20196;-81
2023/06/16 08:15:37;;;;;;;2.00;1.90;;;25.70;49.60;25.60;96525.00;;;;5061279;28;20256;-81
2023/06/16 08:18:05;;;;;;;1.83;1.73;;;25.80;49.30;25.70;96522.00;;;;5059946;28;20203;-81
2023/06/16 08:20:37;;;;;;;2.00;1.80;;;26.00;49.00;25.90;96523.00;;;;5060804;28;20197;-81
2023/06/16 08:23:04;;;;;;;2.10;2.00;;;26.10;48.80;26.00;96520.00;;;;5053398;28;20247;-80
2023/06/16 08:25:31;;;;;;;2.33;1.90;;;26.20;48.30;26.20;96515.00;;;;5059963;28;20662;-80
2023/06/16 08:28:00;;;;;;;2.03;1.93;;;26.40;47.90;26.30;96515.00;;;;5060427;28;20758;-80
2023/06/16 08:30:27;;;;;;;2.20;2.00;;;26.50;48.20;26.40;96526.00;;;;5052322;28;20260;-80
2023/06/16 08:32:56;;;;;;;2.13;2.03;;;26.60;48.40;26.60;96522.00;;;;5052923;28;20284;-80
2023/06/16 08:35:25;;;;;;;2.65;2.10;;;26.80;47.30;26.70;96517.00;;;;5058308;28;20209;-80
2023/06/16 08:37:52;;;;;;;2.10;1.90;;;26.90;47.00;26.90;96526.00;;;;5057726;28;20211;-79
2023/06/16 08:40:20;;;;;;;2.03;1.77;;;27.00;47.00;27.00;96517.00;;;;5058100;28;20741;-80
2023/06/16 08:42:48;;;;;;;2.10;1.93;;;27.20;47.00;27.10;96514.00;;;;5053815;28;20605;-80
2023/06/16 08:45:18;;;;;;;2.17;1.97;;;27.30;46.60;27.30;96518.00;;;;5058815;28;20307;-79
2023/06/16 08:47:47;;;;;;;2.13;1.95;;;27.40;46.30;27.40;96520.00;;;;5057465;28;20774;-79
2023/06/16 08:50:22;;;;;;;2.17;2.08;;;27.60;46.00;27.60;96510.00;;;;5039723;28;20250;-78
2023/06/16 08:52:52;;;;;;;2.20;2.00;;;27.70;45.70;27.70;96513.00;;;;5051139;28;20220;-77
2023/06/16 08:55:25;;;;;;;2.58;2.03;;;27.90;45.90;27.90;96509.00;;;;5055368;28;20258;-79
2023/06/16 08:57:54;;;;;;;2.20;2.00;;;28.00;45.90;28.00;96504.00;;;;5056344;28;20200;-79
2023/06/16 09:00:24;;;;;;;1.80;1.70;;;28.20;45.20;28.10;96503.00;;;;5056742;28;20197;-81
2023/06/16 09:02:55;;;;;;;1.70;1.60;;;28.30;44.50;28.10;96502.00;;;;5057471;28;20209;-80
2023/06/16 09:05:26;;;;;;;1.92;1.83;;;28.40;44.50;28.10;96501.00;;;;5058354;28;20514;-80
2023/06/16 09:07:54;;;;;;;2.20;2.03;;;28.40;44.40;28.10;96505.00;;;;5058030;28;20284;-79
2023/06/16 09:10:22;;;;;;;2.92;2.08;;;28.40;44.40;28.10;96503.00;;;;5059887;28;20288;-80
2023/06/16 09:12:53;;;;;;;2.65;2.10;;;28.40;43.40;28.00;96496.00;;;;5061926;28;20225;-80
2023/06/16 09:15:21;;;;;;;1.92;1.83;;;28.40;42.90;27.90;96498.00;;;;5064582;28;20224;-80
2023/06/16 09:17:51;;;;;;;2.10;1.90;;;28.40;42.80;27.90;96490.00;;;;5065594;28;20201;-80
2023/06/16 09:20:22;;;;;;;2.17;2.08;;;28.40;42.50;27.90;96496.00;;;;5047909;28;20665;-80
2023/06/16 09:22:59;;;;;;;3.33;1.52;;;28.30;42.00;27.80;96487.00;;;;5066313;28;20201;-78
2023/06/16 09:25:26;;;;;;;1.67;1.57;;;28.30;41.60;27.70;96489.00;;;;5058295;28;20280;-79
2023/06/16 09:27:56;;;;;;;1.95;1.85;;;28.20;42.00;27.70;96486.00;;;;5063156;28;20284;-79
2023/06/16 09:30:33;;;;;;;2.87;1.90;;;28.10;42.30;27.60;96480.00;;;;5062617;28;20588;-80
2023/06/16 09:33:01;;;;;;;2.58;2.00;;;28.10;41.70;27.50;96475.00;;;;5052760;28;20605;-79
2023/06/16 09:35:31;;;;;;;1.97;1.60;;;28.00;41.80;27.40;96469.00;;;;5065473;28;20200;-80
2023/06/16 09:38:03;;;;;;;3.20;2.13;;;27.90;41.80;27.40;96473.00;;;;5055616;28;20279;-80
2023/06/16 09:40:32;;;;;;;2.40;1.90;;;27.80;41.60;27.40;96466.00;;;;5054434;28;20193;-80
2023/06/16 09:43:03;;;;;;;1.77;1.67;;;27.80;42.10;27.50;96468.00;;;;5053870;28;20199;-80
2023/06/16 09:45:32;;;;;;;3.15;1.90;;;27.90;42.70;27.70;96468.00;;;;5053410;28;20654;-79
2023/06/16 09:48:04;;;;;;;2.63;1.65;;;28.00;42.90;27.90;96460.00;;;;5053228;28;20284;-79
2023/06/16 09:50:33;;;;;;;2.35;1.60;;;28.30;41.40;28.10;96454.00;;;;5058698;28;20192;-80
2023/06/16 09:53:07;;;;;;;2.50;2.00;;;28.50;42.00;28.40;96443.00;;;;5052176;28;20217;-79
2023/06/16 09:55:38;;;;;;;1.63;1.52;;;28.80;40.30;28.70;96445.00;;;;5061004;28;20204;-79
2023/06/16 09:58:06;;;;;;;2.42;1.80;;;29.10;40.70;29.00;96442.00;;;;5066198;28;20196;-79
2023/06/16 10:00:34;;;;;;;2.95;1.65;;;29.50;40.70;29.20;96440.00;;;;5053999;28;20645;-80
2023/06/16 10:03:05;;;;;;;1.67;1.58;;;29.90;39.90;29.40;96437.00;;;;5051291;28;20197;-79
2023/06/16 10:05:36;;;;;;;1.55;1.40;;;30.20;38.50;29.50;96439.00;;;;5045880;28;20586;-80
2023/06/16 10:08:06;;;;;;;1.83;1.73;;;30.40;37.80;29.60;96444.00;;;;5054063;28;20614;-79
2023/06/16 10:10:37;;;;;;;2.00;1.88;;;30.50;37.10;29.70;96439.00;;;;5054471;28;20197;-79
2023/06/16 10:13:07;;;;;;;1.80;1.70;;;30.60;37.60;29.80;96446.00;;;;5051548;28;20225;-79
2023/06/16 10:15:40;;;;;;;1.83;1.63;;;30.70;37.20;29.80;96436.00;;;;5050810;28;20209;-79
2023/06/16 10:18:11;;;;;;;1.73;1.63;;;30.80;36.40;29.80;96447.00;;;;5055403;28;20193;-79
2023/06/16 10:20:40;;;;;;;1.50;1.40;;;30.80;36.20;29.70;96456.00;;;;5051024;28;20654;-81
2023/06/16 10:23:10;;;;;;;2.25;1.45;;;30.70;36.10;29.70;96441.00;;;;5054081;28;20200;-82
2023/06/16 10:25:39;;;;;;;1.67;1.58;;;30.70;36.10;29.80;96444.00;;;;5051862;28;20284;-82
2023/06/16 10:28:11;;;;;;;2.17;1.60;;;30.70;36.50;30.00;96454.00;;;;5055728;28;20249;-80
2023/06/16 10:30:39;;;;;;;1.95;1.58;;;30.70;36.70;30.10;96450.00;;;;5055696;28;20193;-81
2023/06/16 10:33:18;;;;;;;5.97;1.70;;;30.80;36.40;30.20;96450.00;;;;5065166;28;20216;-80
2023/06/16 10:35:53;;;;;;;1.70;1.60;;;30.90;34.60;30.10;96446.00;;;;5052740;28;20284;-80
2023/06/16 10:38:34;;;;;;;3.00;1.80;;;30.90;34.50;30.10;96456.00;;;;5047504;28;20861;-80
2023/06/16 10:41:03;;;;;;;1.88;1.77;;;30.90;34.30;30.00;96459.00;;;;5053862;28;20204;-81
2023/06/16 10:43:31;;;;;;;2.67;1.92;;;30.80;34.10;29.90;96462.00;;;;5047040;28;20310;-79
2023/06/16 10:46:15;;;;;;;2.40;1.50;;;30.70;34.00;29.80;96451.00;;;;5052536;28;20275;-80
2023/06/16 10:49:18;;;;;;;1.63;1.52;;;30.60;33.20;29.60;96465.00;;;;5051370;28;20224;-80
2023/06/16 10:51:49;;;;;;;1.67;1.58;;;30.40;33.30;29.60;96461.00;;;;4974800;28;20218;-80
2023/06/16 10:54:48;;;;;;;1.75;1.65;;;30.30;33.80;29.50;96456.00;;;;5049108;28;20216;-80
2023/06/16 10:57:16;;;;;;;1.60;1.50;;;30.20;33.60;29.50;96456.00;;;;5049212;28;20208;-79
2023/06/16 11:00:07;;;;;;;2.60;2.03;;;30.10;34.20;29.40;96455.00;;;;5051845;28;20204;-82
2023/06/16 11:02:36;;;;;;;1.50;1.40;;;30.00;33.20;29.30;96450.00;;;;5044519;28;20200;-80
2023/06/16 11:05:14;;;;;;;1.90;1.63;;;29.90;34.20;29.30;96449.00;;;;5060517;28;20286;-81